sensor_id;sensor_type;location;lat;lon;timestamp;P1;durP1;ratioP1;P2;durP2;ratioP2
15814;SDS011;8008;50.024;8.172;2022-10-29T03:02:40;10.57;;;6.15;;
15814;SDS011;8008;50.024;8.172;2022-10-29T03:05:08;13.32;;;5.97;;
15814;SDS011;8008;50.024;8.172;2022-10-29T03:07:37;9.80;;;6.13;;
15814;SDS011;8008;50.024;8.172;2022-10-29T03:10:06;12.88;;;6.22;;
15814;SDS011;8008;50.024;8.172;2022-10-29T03:12:34;11.38;;;6.25;;
15814;SDS011;8008;50.024;8.172;2022-10-29T03:17:32;15.10;;;6.20;;
15814;SDS011;8008;50.024;8.172;2022-10-29T03:19:59;12.98;;;6.10;;
15814;SDS011;8008;50.024;8.172;2022-10-29T03:22:27;12.95;;;6.50;;
15814;SDS011;8008;50.024;8.172;2022-10-29T03:24:55;16.70;;;6.40;;
15814;SDS011;8008;50.024;8.172;2022-10-29T03:27:23;10.23;;;5.75;;
15814;SDS011;8008;50.024;8.172;2022-10-29T03:30:05;10.25;;;5.80;;
15814;SDS011;8008;50.024;8.172;2022-10-29T03:32:36;14.18;;;5.97;;
15814;SDS011;8008;50.024;8.172;2022-10-29T03:35:06;10.40;;;5.90;;
15814;SDS011;8008;50.024;8.172;2022-10-29T03:37:35;10.10;;;5.93;;
15814;SDS011;8008;50.024;8.172;2022-10-29T03:40:03;11.23;;;5.60;;
15814;SDS011;8008;50.024;8.172;2022-10-29T03:42:32;17.30;;;6.28;;
15814;SDS011;8008;50.024;8.172;2022-10-29T03:45:00;11.65;;;5.97;;
15814;SDS011;8008;50.024;8.172;2022-10-29T03:47:28;11.68;;;5.90;;
15814;SDS011;8008;50.024;8.172;2022-10-29T03:49:57;11.98;;;5.75;;
15814;SDS011;8008;50.024;8.172;2022-10-29T03:52:25;8.60;;;5.78;;
15814;SDS011;8008;50.024;8.172;2022-10-29T03:54:53;10.77;;;5.70;;
15814;SDS011;8008;50.024;8.172;2022-10-29T03:57:21;13.07;;;6.22;;
15814;SDS011;8008;50.024;8.172;2022-10-29T03:59:49;9.73;;;6.20;;
15814;SDS011;8008;50.024;8.172;2022-10-29T04:02:18;13.70;;;6.20;;
15814;SDS011;8008;50.024;8.172;2022-10-29T04:04:46;9.55;;;5.82;;
15814;SDS011;8008;50.024;8.172;2022-10-29T04:07:15;11.15;;;5.90;;
15814;SDS011;8008;50.024;8.172;2022-10-29T04:09:44;12.60;;;6.10;;
15814;SDS011;8008;50.024;8.172;2022-10-29T04:12:18;9.43;;;5.70;;
15814;SDS011;8008;50.024;8.172;2022-10-29T04:14:46;13.77;;;5.75;;
15814;SDS011;8008;50.024;8.172;2022-10-29T04:17:19;13.50;;;5.40;;
15814;SDS011;8008;50.024;8.172;2022-10-29T04:19:47;11.05;;;5.43;;
15814;SDS011;8008;50.024;8.172;2022-10-29T04:22:16;9.52;;;5.03;;
15814;SDS011;8008;50.024;8.172;2022-10-29T04:25:06;13.32;;;5.32;;
15814;SDS011;8008;50.024;8.172;2022-10-29T04:27:55;10.02;;;5.45;;
15814;SDS011;8008;50.024;8.172;2022-10-29T04:30:43;10.38;;;5.55;;
15814;SDS011;8008;50.024;8.172;2022-10-29T04:33:11;15.68;;;5.47;;
15814;SDS011;8008;50.024;8.172;2022-10-29T04:35:39;9.80;;;5.45;;
15814;SDS011;8008;50.024;8.172;2022-10-29T04:38:08;11.73;;;6.43;;
15814;SDS011;8008;50.024;8.172;2022-10-29T04:40:37;8.27;;;5.53;;
15814;SDS011;8008;50.024;8.172;2022-10-29T04:43:05;10.13;;;6.15;;
15814;SDS011;8008;50.024;8.172;2022-10-29T04:45:33;9.65;;;5.80;;
15814;SDS011;8008;50.024;8.172;2022-10-29T04:48:01;10.68;;;5.60;;
15814;SDS011;8008;50.024;8.172;2022-10-29T04:50:30;10.50;;;5.70;;
15814;SDS011;8008;50.024;8.172;2022-10-29T04:52:59;8.70;;;5.38;;
15814;SDS011;8008;50.024;8.172;2022-10-29T04:55:30;10.55;;;6.03;;
15814;SDS011;8008;50.024;8.172;2022-10-29T04:57:58;11.70;;;6.13;;
15814;SDS011;8008;50.024;8.172;2022-10-29T05:00:26;10.70;;;6.10;;
15814;SDS011;8008;50.024;8.172;2022-10-29T05:02:55;11.07;;;6.28;;
15814;SDS011;8008;50.024;8.172;2022-10-29T05:05:25;11.57;;;6.30;;
15814;SDS011;8008;50.024;8.172;2022-10-29T05:07:56;13.20;;;6.50;;
15814;SDS011;8008;50.024;8.172;2022-10-29T05:10:27;12.25;;;6.45;;
15814;SDS011;8008;50.024;8.172;2022-10-29T05:12:58;13.73;;;6.93;;
15814;SDS011;8008;50.024;8.172;2022-10-29T05:15:27;11.65;;;7.00;;
15814;SDS011;8008;50.024;8.172;2022-10-29T05:17:56;12.55;;;6.82;;
15814;SDS011;8008;50.024;8.172;2022-10-29T05:20:24;10.35;;;6.72;;
15814;SDS011;8008;50.024;8.172;2022-10-29T05:22:57;13.15;;;6.40;;
15814;SDS011;8008;50.024;8.172;2022-10-29T05:25:27;7.60;;;5.47;;
15814;SDS011;8008;50.024;8.172;2022-10-29T05:28:04;9.95;;;6.00;;
15814;SDS011;8008;50.024;8.172;2022-10-29T05:30:34;10.70;;;5.88;;
15814;SDS011;8008;50.024;8.172;2022-10-29T05:33:04;15.00;;;5.88;;
15814;SDS011;8008;50.024;8.172;2022-10-29T05:35:33;9.55;;;5.55;;
15814;SDS011;8008;50.024;8.172;2022-10-29T05:38:01;11.75;;;5.40;;
15814;SDS011;8008;50.024;8.172;2022-10-29T05:40:30;10.73;;;5.43;;
15814;SDS011;8008;50.024;8.172;2022-10-29T05:42:59;10.57;;;5.57;;
15814;SDS011;8008;50.024;8.172;2022-10-29T05:45:29;7.88;;;5.53;;
15814;SDS011;8008;50.024;8.172;2022-10-29T05:47:57;12.88;;;5.85;;
15814;SDS011;8008;50.024;8.172;2022-10-29T05:50:26;8.32;;;5.43;;
15814;SDS011;8008;50.024;8.172;2022-10-29T05:52:55;10.02;;;5.80;;
15814;SDS011;8008;50.024;8.172;2022-10-29T05:55:24;13.32;;;5.65;;
15814;SDS011;8008;50.024;8.172;2022-10-29T05:57:54;9.23;;;5.18;;
15814;SDS011;8008;50.024;8.172;2022-10-29T06:00:23;11.43;;;5.57;;
15814;SDS011;8008;50.024;8.172;2022-10-29T06:02:52;9.40;;;5.38;;
15814;SDS011;8008;50.024;8.172;2022-10-29T06:05:21;11.38;;;5.18;;
15814;SDS011;8008;50.024;8.172;2022-10-29T06:07:52;9.07;;;5.18;;
15814;SDS011;8008;50.024;8.172;2022-10-29T06:10:21;9.75;;;5.13;;
15814;SDS011;8008;50.024;8.172;2022-10-29T06:12:49;12.13;;;5.60;;
15814;SDS011;8008;50.024;8.172;2022-10-29T06:15:18;10.93;;;5.68;;
15814;SDS011;8008;50.024;8.172;2022-10-29T06:17:46;11.27;;;5.50;;
15814;SDS011;8008;50.024;8.172;2022-10-29T06:20:16;10.18;;;5.80;;
15814;SDS011;8008;50.024;8.172;2022-10-29T06:22:45;8.30;;;5.85;;
15814;SDS011;8008;50.024;8.172;2022-10-29T06:25:14;13.43;;;6.93;;
15814;SDS011;8008;50.024;8.172;2022-10-29T06:27:41;13.27;;;7.28;;
15814;SDS011;8008;50.024;8.172;2022-10-29T06:30:10;14.52;;;7.10;;
15814;SDS011;8008;50.024;8.172;2022-10-29T06:32:38;15.30;;;7.07;;
15814;SDS011;8008;50.024;8.172;2022-10-29T06:35:07;16.23;;;7.20;;
15814;SDS011;8008;50.024;8.172;2022-10-29T06:37:37;13.88;;;6.43;;
15814;SDS011;8008;50.024;8.172;2022-10-29T06:43:02;12.43;;;7.07;;
15814;SDS011;8008;50.024;8.172;2022-10-29T06:45:32;11.15;;;6.13;;
15814;SDS011;8008;50.024;8.172;2022-10-29T06:48:00;11.55;;;6.07;;
15814;SDS011;8008;50.024;8.172;2022-10-29T06:50:31;9.65;;;6.05;;
15814;SDS011;8008;50.024;8.172;2022-10-29T06:53:00;11.45;;;5.93;;
15814;SDS011;8008;50.024;8.172;2022-10-29T06:55:29;11.25;;;6.38;;
15814;SDS011;8008;50.024;8.172;2022-10-29T06:57:59;11.50;;;6.15;;
15814;SDS011;8008;50.024;8.172;2022-10-29T07:00:28;13.38;;;6.05;;
15814;SDS011;8008;50.024;8.172;2022-10-29T07:02:57;9.75;;;5.97;;
15814;SDS011;8008;50.024;8.172;2022-10-29T07:05:26;11.85;;;6.05;;
15814;SDS011;8008;50.024;8.172;2022-10-29T07:07:54;11.75;;;5.68;;
15814;SDS011;8008;50.024;8.172;2022-10-29T07:10:26;11.80;;;5.57;;
15814;SDS011;8008;50.024;8.172;2022-10-29T07:12:55;10.52;;;5.75;;
15814;SDS011;8008;50.024;8.172;2022-10-29T07:15:23;9.85;;;5.60;;
15814;SDS011;8008;50.024;8.172;2022-10-29T07:17:55;10.90;;;5.35;;
15814;SDS011;8008;50.024;8.172;2022-10-29T07:20:26;12.43;;;5.90;;
15814;SDS011;8008;50.024;8.172;2022-10-29T07:22:55;8.10;;;5.68;;
15814;SDS011;8008;50.024;8.172;2022-10-29T07:25:26;12.60;;;5.72;;
15814;SDS011;8008;50.024;8.172;2022-10-29T07:27:54;8.48;;;5.72;;
15814;SDS011;8008;50.024;8.172;2022-10-29T07:30:28;12.27;;;6.00;;
15814;SDS011;8008;50.024;8.172;2022-10-29T07:32:56;15.70;;;5.95;;
15814;SDS011;8008;50.024;8.172;2022-10-29T07:35:24;10.55;;;5.88;;
15814;SDS011;8008;50.024;8.172;2022-10-29T07:37:52;14.07;;;5.50;;
15814;SDS011;8008;50.024;8.172;2022-10-29T07:40:37;10.13;;;5.88;;
15814;SDS011;8008;50.024;8.172;2022-10-29T07:43:05;12.52;;;5.68;;
15814;SDS011;8008;50.024;8.172;2022-10-29T07:45:33;9.90;;;5.50;;
15814;SDS011;8008;50.024;8.172;2022-10-29T07:48:01;12.10;;;6.05;;
15814;SDS011;8008;50.024;8.172;2022-10-29T07:50:32;15.38;;;6.35;;
15814;SDS011;8008;50.024;8.172;2022-10-29T07:53:00;10.18;;;5.70;;
15814;SDS011;8008;50.024;8.172;2022-10-29T07:55:29;11.32;;;6.15;;
15814;SDS011;8008;50.024;8.172;2022-10-29T07:57:58;11.90;;;6.00;;
15814;SDS011;8008;50.024;8.172;2022-10-29T08:00:27;10.75;;;5.80;;
15814;SDS011;8008;50.024;8.172;2022-10-29T08:02:56;12.88;;;6.30;;
15814;SDS011;8008;50.024;8.172;2022-10-29T08:05:25;12.80;;;6.05;;
15814;SDS011;8008;50.024;8.172;2022-10-29T08:07:53;14.43;;;6.65;;
15814;SDS011;8008;50.024;8.172;2022-10-29T08:10:22;13.95;;;6.78;;
15814;SDS011;8008;50.024;8.172;2022-10-29T08:12:51;12.70;;;6.57;;
15814;SDS011;8008;50.024;8.172;2022-10-29T08:15:23;13.20;;;6.72;;
15814;SDS011;8008;50.024;8.172;2022-10-29T08:17:52;14.48;;;6.93;;
15814;SDS011;8008;50.024;8.172;2022-10-29T08:20:21;12.02;;;6.72;;
15814;SDS011;8008;50.024;8.172;2022-10-29T08:22:50;11.52;;;6.35;;
15814;SDS011;8008;50.024;8.172;2022-10-29T08:25:18;15.45;;;6.43;;
15814;SDS011;8008;50.024;8.172;2022-10-29T08:27:56;14.95;;;6.20;;
15814;SDS011;8008;50.024;8.172;2022-10-29T08:30:26;15.75;;;6.45;;
15814;SDS011;8008;50.024;8.172;2022-10-29T08:32:54;11.73;;;6.32;;
15814;SDS011;8008;50.024;8.172;2022-10-29T08:35:23;13.52;;;6.15;;
15814;SDS011;8008;50.024;8.172;2022-10-29T08:37:51;15.43;;;7.25;;
15814;SDS011;8008;50.024;8.172;2022-10-29T08:40:24;13.73;;;7.07;;
15814;SDS011;8008;50.024;8.172;2022-10-29T08:43:12;15.77;;;8.20;;
15814;SDS011;8008;50.024;8.172;2022-10-29T08:45:57;14.85;;;8.55;;
15814;SDS011;8008;50.024;8.172;2022-10-29T08:48:33;14.60;;;8.20;;
15814;SDS011;8008;50.024;8.172;2022-10-29T08:51:05;13.20;;;7.28;;
15814;SDS011;8008;50.024;8.172;2022-10-29T08:53:40;14.93;;;8.00;;
15814;SDS011;8008;50.024;8.172;2022-10-29T08:56:31;14.15;;;7.93;;
15814;SDS011;8008;50.024;8.172;2022-10-29T08:59:02;15.90;;;8.18;;
15814;SDS011;8008;50.024;8.172;2022-10-29T09:01:34;15.75;;;7.95;;
15814;SDS011;8008;50.024;8.172;2022-10-29T09:04:07;17.63;;;7.80;;
15814;SDS011;8008;50.024;8.172;2022-10-29T09:06:47;16.02;;;7.47;;
15814;SDS011;8008;50.024;8.172;2022-10-29T09:09:30;12.57;;;7.22;;
15814;SDS011;8008;50.024;8.172;2022-10-29T09:12:28;14.07;;;7.15;;
15814;SDS011;8008;50.024;8.172;2022-10-29T09:17:57;19.65;;;7.07;;
15814;SDS011;8008;50.024;8.172;2022-10-29T09:20:38;14.45;;;6.72;;
15814;SDS011;8008;50.024;8.172;2022-10-29T09:23:13;9.80;;;6.38;;
15814;SDS011;8008;50.024;8.172;2022-10-29T09:25:56;15.65;;;7.03;;
15814;SDS011;8008;50.024;8.172;2022-10-29T09:28:32;12.75;;;7.13;;
15814;SDS011;8008;50.024;8.172;2022-10-29T09:31:11;16.33;;;7.75;;
15814;SDS011;8008;50.024;8.172;2022-10-29T09:33:49;14.80;;;7.43;;
15814;SDS011;8008;50.024;8.172;2022-10-29T09:36:24;13.27;;;7.40;;
15814;SDS011;8008;50.024;8.172;2022-10-29T09:38:54;17.73;;;6.90;;
15814;SDS011;8008;50.024;8.172;2022-10-29T09:41:25;13.07;;;7.22;;
15814;SDS011;8008;50.024;8.172;2022-10-29T09:43:58;16.08;;;7.20;;
15814;SDS011;8008;50.024;8.172;2022-10-29T09:46:32;14.75;;;7.05;;
15814;SDS011;8008;50.024;8.172;2022-10-29T09:49:10;10.93;;;7.18;;
15814;SDS011;8008;50.024;8.172;2022-10-29T09:51:50;13.77;;;7.15;;
15814;SDS011;8008;50.024;8.172;2022-10-29T09:54:21;13.43;;;6.95;;
15814;SDS011;8008;50.024;8.172;2022-10-29T09:56:50;17.08;;;7.03;;
15814;SDS011;8008;50.024;8.172;2022-10-29T09:59:23;16.23;;;7.40;;
15814;SDS011;8008;50.024;8.172;2022-10-29T10:01:55;16.65;;;7.53;;
15814;SDS011;8008;50.024;8.172;2022-10-29T10:04:27;15.13;;;8.05;;
15814;SDS011;8008;50.024;8.172;2022-10-29T10:07:03;15.20;;;7.55;;
15814;SDS011;8008;50.024;8.172;2022-10-29T10:09:48;14.05;;;7.00;;
15814;SDS011;8008;50.024;8.172;2022-10-29T10:12:18;16.33;;;9.18;;
15814;SDS011;8008;50.024;8.172;2022-10-29T10:14:48;10.98;;;7.90;;
15814;SDS011;8008;50.024;8.172;2022-10-29T10:17:27;17.52;;;7.72;;
15814;SDS011;8008;50.024;8.172;2022-10-29T10:20:11;14.38;;;7.78;;
15814;SDS011;8008;50.024;8.172;2022-10-29T10:22:53;16.77;;;8.07;;
15814;SDS011;8008;50.024;8.172;2022-10-29T10:25:32;14.30;;;8.52;;
15814;SDS011;8008;50.024;8.172;2022-10-29T10:28:03;19.33;;;8.45;;
15814;SDS011;8008;50.024;8.172;2022-10-29T10:30:44;13.93;;;9.02;;
15814;SDS011;8008;50.024;8.172;2022-10-29T10:33:21;16.92;;;9.43;;
15814;SDS011;8008;50.024;8.172;2022-10-29T10:35:52;16.15;;;9.38;;
15814;SDS011;8008;50.024;8.172;2022-10-29T10:38:21;15.25;;;9.25;;
15814;SDS011;8008;50.024;8.172;2022-10-29T10:40:55;17.58;;;9.38;;
15814;SDS011;8008;50.024;8.172;2022-10-29T10:43:27;17.00;;;9.63;;
15814;SDS011;8008;50.024;8.172;2022-10-29T10:45:55;21.00;;;10.57;;
15814;SDS011;8008;50.024;8.172;2022-10-29T10:48:25;21.05;;;9.75;;
15814;SDS011;8008;50.024;8.172;2022-10-29T10:51:12;18.02;;;9.50;;
15814;SDS011;8008;50.024;8.172;2022-10-29T10:53:45;16.70;;;9.13;;
15814;SDS011;8008;50.024;8.172;2022-10-29T10:56:14;16.50;;;9.38;;
15814;SDS011;8008;50.024;8.172;2022-10-29T10:58:46;19.42;;;9.40;;
15814;SDS011;8008;50.024;8.172;2022-10-29T11:01:24;16.45;;;9.15;;
15814;SDS011;8008;50.024;8.172;2022-10-29T11:03:57;19.38;;;9.52;;
15814;SDS011;8008;50.024;8.172;2022-10-29T11:06:30;19.27;;;9.13;;
15814;SDS011;8008;50.024;8.172;2022-10-29T11:09:04;16.58;;;8.70;;
15814;SDS011;8008;50.024;8.172;2022-10-29T11:11:36;17.67;;;9.15;;
15814;SDS011;8008;50.024;8.172;2022-10-29T11:14:09;17.35;;;8.52;;
15814;SDS011;8008;50.024;8.172;2022-10-29T11:16:42;15.88;;;8.60;;
15814;SDS011;8008;50.024;8.172;2022-10-29T11:19:17;22.15;;;9.05;;
15814;SDS011;8008;50.024;8.172;2022-10-29T11:21:55;19.92;;;9.40;;
15814;SDS011;8008;50.024;8.172;2022-10-29T11:24:32;18.55;;;9.75;;
15814;SDS011;8008;50.024;8.172;2022-10-29T11:27:12;19.23;;;9.02;;
15814;SDS011;8008;50.024;8.172;2022-10-29T11:29:51;14.48;;;8.73;;
15814;SDS011;8008;50.024;8.172;2022-10-29T11:32:26;17.42;;;9.50;;
15814;SDS011;8008;50.024;8.172;2022-10-29T11:35:01;15.45;;;8.63;;
15814;SDS011;8008;50.024;8.172;2022-10-29T11:37:34;13.68;;;9.02;;
15814;SDS011;8008;50.024;8.172;2022-10-29T11:40:11;16.40;;;10.10;;
15814;SDS011;8008;50.024;8.172;2022-10-29T11:42:40;17.30;;;9.55;;
15814;SDS011;8008;50.024;8.172;2022-10-29T11:45:10;16.40;;;9.80;;
15814;SDS011;8008;50.024;8.172;2022-10-29T11:47:53;18.27;;;9.75;;
15814;SDS011;8008;50.024;8.172;2022-10-29T11:50:32;18.17;;;10.48;;
15814;SDS011;8008;50.024;8.172;2022-10-29T11:53:12;15.60;;;9.60;;
15814;SDS011;8008;50.024;8.172;2022-10-29T11:55:52;15.60;;;9.35;;
15814;SDS011;8008;50.024;8.172;2022-10-29T11:58:31;12.00;;;9.38;;
15814;SDS011;8008;50.024;8.172;2022-10-29T12:01:08;17.40;;;9.75;;
15814;SDS011;8008;50.024;8.172;2022-10-29T12:03:50;19.60;;;9.60;;
15814;SDS011;8008;50.024;8.172;2022-10-29T12:06:41;16.30;;;9.68;;
15814;SDS011;8008;50.024;8.172;2022-10-29T12:09:30;18.90;;;10.52;;
15814;SDS011;8008;50.024;8.172;2022-10-29T12:12:10;23.95;;;11.32;;
15814;SDS011;8008;50.024;8.172;2022-10-29T12:14:44;33.85;;;15.75;;
15814;SDS011;8008;50.024;8.172;2022-10-29T12:17:19;33.30;;;16.08;;
15814;SDS011;8008;50.024;8.172;2022-10-29T12:19:53;33.90;;;16.30;;
15814;SDS011;8008;50.024;8.172;2022-10-29T12:22:30;37.20;;;17.80;;
15814;SDS011;8008;50.024;8.172;2022-10-29T12:25:20;46.20;;;17.20;;
15814;SDS011;8008;50.024;8.172;2022-10-29T12:27:58;33.22;;;16.00;;
15814;SDS011;8008;50.024;8.172;2022-10-29T12:30:37;31.08;;;17.08;;
15814;SDS011;8008;50.024;8.172;2022-10-29T12:33:13;29.80;;;13.63;;
15814;SDS011;8008;50.024;8.172;2022-10-29T12:35:45;27.25;;;12.98;;
15814;SDS011;8008;50.024;8.172;2022-10-29T12:38:21;28.30;;;14.35;;
15814;SDS011;8008;50.024;8.172;2022-10-29T12:41:01;29.77;;;14.27;;
15814;SDS011;8008;50.024;8.172;2022-10-29T12:43:33;23.65;;;13.52;;
15814;SDS011;8008;50.024;8.172;2022-10-29T12:46:05;31.48;;;16.25;;
15814;SDS011;8008;50.024;8.172;2022-10-29T12:48:48;29.42;;;15.20;;
15814;SDS011;8008;50.024;8.172;2022-10-29T12:51:26;25.92;;;15.27;;
15814;SDS011;8008;50.024;8.172;2022-10-29T12:54:09;29.42;;;15.13;;
15814;SDS011;8008;50.024;8.172;2022-10-29T12:56:48;22.92;;;13.00;;
15814;SDS011;8008;50.024;8.172;2022-10-29T12:59:20;22.88;;;12.45;;
15814;SDS011;8008;50.024;8.172;2022-10-29T13:01:59;24.38;;;12.75;;
15814;SDS011;8008;50.024;8.172;2022-10-29T13:10:49;20.67;;;11.27;;
15814;SDS011;8008;50.024;8.172;2022-10-29T13:13:23;18.70;;;11.40;;
15814;SDS011;8008;50.024;8.172;2022-10-29T13:16:05;18.75;;;10.93;;
15814;SDS011;8008;50.024;8.172;2022-10-29T13:18:43;16.10;;;10.43;;
15814;SDS011;8008;50.024;8.172;2022-10-29T13:24:23;18.77;;;9.82;;
15814;SDS011;8008;50.024;8.172;2022-10-29T13:26:52;17.60;;;9.82;;
15814;SDS011;8008;50.024;8.172;2022-10-29T13:32:37;18.15;;;9.45;;
15814;SDS011;8008;50.024;8.172;2022-10-29T13:35:14;18.23;;;9.50;;
15814;SDS011;8008;50.024;8.172;2022-10-29T13:38:08;15.40;;;8.85;;
15814;SDS011;8008;50.024;8.172;2022-10-29T13:40:39;16.23;;;9.02;;
15814;SDS011;8008;50.024;8.172;2022-10-29T13:43:22;16.25;;;8.80;;
15814;SDS011;8008;50.024;8.172;2022-10-29T13:45:51;16.48;;;8.48;;
15814;SDS011;8008;50.024;8.172;2022-10-29T13:48:30;13.15;;;8.32;;
15814;SDS011;8008;50.024;8.172;2022-10-29T13:51:02;13.52;;;8.05;;
15814;SDS011;8008;50.024;8.172;2022-10-29T13:53:37;12.40;;;8.18;;
15814;SDS011;8008;50.024;8.172;2022-10-29T13:56:09;20.88;;;8.65;;
15814;SDS011;8008;50.024;8.172;2022-10-29T13:58:43;11.48;;;8.07;;
15814;SDS011;8008;50.024;8.172;2022-10-29T14:01:15;14.38;;;7.57;;
15814;SDS011;8008;50.024;8.172;2022-10-29T14:03:53;13.13;;;8.15;;
15814;SDS011;8008;50.024;8.172;2022-10-29T14:06:27;12.00;;;8.18;;
15814;SDS011;8008;50.024;8.172;2022-10-29T14:08:58;14.38;;;7.93;;
15814;SDS011;8008;50.024;8.172;2022-10-29T14:11:38;11.85;;;8.13;;
15814;SDS011;8008;50.024;8.172;2022-10-29T14:14:19;14.68;;;8.00;;
15814;SDS011;8008;50.024;8.172;2022-10-29T14:19:41;13.48;;;8.10;;
15814;SDS011;8008;50.024;8.172;2022-10-29T14:22:20;14.20;;;8.70;;
15814;SDS011;8008;50.024;8.172;2022-10-29T14:28:09;14.98;;;8.43;;
15814;SDS011;8008;50.024;8.172;2022-10-29T14:30:45;14.15;;;8.30;;
15814;SDS011;8008;50.024;8.172;2022-10-29T14:33:18;15.82;;;8.68;;
15814;SDS011;8008;50.024;8.172;2022-10-29T14:35:51;14.82;;;8.73;;
15814;SDS011;8008;50.024;8.172;2022-10-29T14:38:21;11.55;;;8.82;;
15814;SDS011;8008;50.024;8.172;2022-10-29T14:40:58;18.52;;;9.30;;
15814;SDS011;8008;50.024;8.172;2022-10-29T14:43:26;18.17;;;9.85;;
15814;SDS011;8008;50.024;8.172;2022-10-29T14:45:55;18.65;;;10.05;;
15814;SDS011;8008;50.024;8.172;2022-10-29T14:48:36;17.45;;;10.48;;
15814;SDS011;8008;50.024;8.172;2022-10-29T14:51:07;18.23;;;10.60;;
15814;SDS011;8008;50.024;8.172;2022-10-29T14:53:44;18.70;;;11.40;;
15814;SDS011;8008;50.024;8.172;2022-10-29T14:56:18;16.63;;;10.98;;
15814;SDS011;8008;50.024;8.172;2022-10-29T14:58:47;16.98;;;10.00;;
15814;SDS011;8008;50.024;8.172;2022-10-29T15:01:16;20.63;;;10.57;;
15814;SDS011;8008;50.024;8.172;2022-10-29T15:03:45;18.30;;;10.13;;
15814;SDS011;8008;50.024;8.172;2022-10-29T15:06:16;21.60;;;13.48;;
15814;SDS011;8008;50.024;8.172;2022-10-29T15:08:51;30.17;;;18.38;;
15814;SDS011;8008;50.024;8.172;2022-10-29T15:11:32;20.98;;;13.57;;
15814;SDS011;8008;50.024;8.172;2022-10-29T15:14:02;21.05;;;12.13;;
15814;SDS011;8008;50.024;8.172;2022-10-29T15:16:47;22.23;;;13.13;;
15814;SDS011;8008;50.024;8.172;2022-10-29T15:19:15;20.20;;;13.18;;
15814;SDS011;8008;50.024;8.172;2022-10-29T15:21:45;18.90;;;12.95;;
15814;SDS011;8008;50.024;8.172;2022-10-29T15:24:14;18.55;;;12.02;;
15814;SDS011;8008;50.024;8.172;2022-10-29T15:26:47;22.73;;;14.35;;
15814;SDS011;8008;50.024;8.172;2022-10-29T15:29:17;20.17;;;13.63;;
15814;SDS011;8008;50.024;8.172;2022-10-29T15:31:57;21.60;;;14.27;;
15814;SDS011;8008;50.024;8.172;2022-10-29T15:34:26;23.70;;;14.95;;
15814;SDS011;8008;50.024;8.172;2022-10-29T15:40:06;20.88;;;15.50;;
15814;SDS011;8008;50.024;8.172;2022-10-29T15:42:38;23.85;;;15.55;;
15814;SDS011;8008;50.024;8.172;2022-10-29T15:47:56;23.00;;;15.23;;
15814;SDS011;8008;50.024;8.172;2022-10-29T15:50:45;25.98;;;14.40;;
15814;SDS011;8008;50.024;8.172;2022-10-29T15:53:14;22.15;;;13.88;;
15814;SDS011;8008;50.024;8.172;2022-10-29T15:55:42;18.23;;;13.15;;
15814;SDS011;8008;50.024;8.172;2022-10-29T15:58:12;25.95;;;12.93;;
15814;SDS011;8008;50.024;8.172;2022-10-29T16:00:41;21.77;;;12.93;;
15814;SDS011;8008;50.024;8.172;2022-10-29T16:03:11;20.85;;;13.25;;
15814;SDS011;8008;50.024;8.172;2022-10-29T16:05:41;26.23;;;13.20;;
15814;SDS011;8008;50.024;8.172;2022-10-29T16:08:16;25.13;;;13.32;;
15814;SDS011;8008;50.024;8.172;2022-10-29T16:10:49;20.92;;;12.98;;
15814;SDS011;8008;50.024;8.172;2022-10-29T16:13:18;25.52;;;14.25;;
15814;SDS011;8008;50.024;8.172;2022-10-29T16:15:46;26.48;;;13.85;;
15814;SDS011;8008;50.024;8.172;2022-10-29T16:18:14;27.70;;;13.65;;
15814;SDS011;8008;50.024;8.172;2022-10-29T16:20:42;30.17;;;13.95;;
15814;SDS011;8008;50.024;8.172;2022-10-29T16:23:10;26.30;;;14.60;;
15814;SDS011;8008;50.024;8.172;2022-10-29T16:25:40;32.00;;;18.80;;
15814;SDS011;8008;50.024;8.172;2022-10-29T16:28:08;33.83;;;17.73;;
15814;SDS011;8008;50.024;8.172;2022-10-29T16:30:36;30.30;;;17.77;;
15814;SDS011;8008;50.024;8.172;2022-10-29T16:33:09;32.88;;;16.85;;
15814;SDS011;8008;50.024;8.172;2022-10-29T16:35:38;29.33;;;17.48;;
15814;SDS011;8008;50.024;8.172;2022-10-29T16:38:06;27.08;;;15.43;;
15814;SDS011;8008;50.024;8.172;2022-10-29T16:40:33;28.25;;;16.00;;
15814;SDS011;8008;50.024;8.172;2022-10-29T16:43:03;31.05;;;15.75;;
15814;SDS011;8008;50.024;8.172;2022-10-29T16:45:31;27.70;;;15.80;;
15814;SDS011;8008;50.024;8.172;2022-10-29T16:47:59;39.65;;;19.77;;
15814;SDS011;8008;50.024;8.172;2022-10-29T16:50:28;33.05;;;15.57;;
15814;SDS011;8008;50.024;8.172;2022-10-29T16:52:57;26.85;;;15.32;;
15814;SDS011;8008;50.024;8.172;2022-10-29T16:55:27;52.17;;;19.98;;
15814;SDS011;8008;50.024;8.172;2022-10-29T16:58:00;60.53;;;22.50;;
15814;SDS011;8008;50.024;8.172;2022-10-29T17:00:29;71.93;;;27.90;;
15814;SDS011;8008;50.024;8.172;2022-10-29T17:02:58;72.45;;;27.77;;
15814;SDS011;8008;50.024;8.172;2022-10-29T17:05:33;65.90;;;27.20;;
15814;SDS011;8008;50.024;8.172;2022-10-29T17:08:02;77.60;;;31.95;;
15814;SDS011;8008;50.024;8.172;2022-10-29T17:10:31;68.30;;;29.80;;
15814;SDS011;8008;50.024;8.172;2022-10-29T17:12:59;67.25;;;28.63;;
15814;SDS011;8008;50.024;8.172;2022-10-29T17:15:27;65.13;;;27.05;;
15814;SDS011;8008;50.024;8.172;2022-10-29T17:20:30;64.40;;;25.70;;
15814;SDS011;8008;50.024;8.172;2022-10-29T17:22:58;49.05;;;23.13;;
15814;SDS011;8008;50.024;8.172;2022-10-29T17:25:26;52.78;;;21.73;;
15814;SDS011;8008;50.024;8.172;2022-10-29T17:27:57;56.53;;;23.13;;
15814;SDS011;8008;50.024;8.172;2022-10-29T17:30:25;59.67;;;24.95;;
15814;SDS011;8008;50.024;8.172;2022-10-29T17:32:57;53.00;;;21.55;;
15814;SDS011;8008;50.024;8.172;2022-10-29T17:35:25;49.95;;;22.30;;
15814;SDS011;8008;50.024;8.172;2022-10-29T17:37:53;41.60;;;18.95;;
15814;SDS011;8008;50.024;8.172;2022-10-29T17:40:23;36.97;;;16.45;;
15814;SDS011;8008;50.024;8.172;2022-10-29T17:42:51;35.25;;;15.35;;
15814;SDS011;8008;50.024;8.172;2022-10-29T17:45:21;31.45;;;15.32;;
15814;SDS011;8008;50.024;8.172;2022-10-29T17:47:52;29.60;;;15.48;;
15814;SDS011;8008;50.024;8.172;2022-10-29T17:50:32;28.99;;;14.39;;
15814;SDS011;8008;50.024;8.172;2022-10-29T17:53:07;27.90;;;14.43;;
15814;SDS011;8008;50.024;8.172;2022-10-29T17:55:35;32.00;;;17.20;;
15814;SDS011;8008;50.024;8.172;2022-10-29T17:58:03;31.92;;;17.30;;
15814;SDS011;8008;50.024;8.172;2022-10-29T18:00:31;28.83;;;15.55;;
15814;SDS011;8008;50.024;8.172;2022-10-29T18:02:58;28.77;;;16.10;;
15814;SDS011;8008;50.024;8.172;2022-10-29T18:05:26;28.95;;;16.10;;
15814;SDS011;8008;50.024;8.172;2022-10-29T18:07:57;29.48;;;15.48;;
15814;SDS011;8008;50.024;8.172;2022-10-29T18:10:35;27.45;;;14.18;;
15814;SDS011;8008;50.024;8.172;2022-10-29T18:13:02;29.27;;;14.93;;
15814;SDS011;8008;50.024;8.172;2022-10-29T18:15:32;25.02;;;14.75;;
15814;SDS011;8008;50.024;8.172;2022-10-29T18:18:00;24.75;;;14.10;;
15814;SDS011;8008;50.024;8.172;2022-10-29T18:20:32;24.00;;;13.30;;
15814;SDS011;8008;50.024;8.172;2022-10-29T18:23:01;25.55;;;14.27;;
15814;SDS011;8008;50.024;8.172;2022-10-29T18:25:30;22.40;;;13.90;;
15814;SDS011;8008;50.024;8.172;2022-10-29T18:27:58;31.58;;;16.38;;
15814;SDS011;8008;50.024;8.172;2022-10-29T18:30:25;31.02;;;16.90;;
15814;SDS011;8008;50.024;8.172;2022-10-29T18:33:02;31.05;;;15.93;;
15814;SDS011;8008;50.024;8.172;2022-10-29T18:35:32;28.75;;;15.68;;
15814;SDS011;8008;50.024;8.172;2022-10-29T18:38:02;23.02;;;15.25;;
15814;SDS011;8008;50.024;8.172;2022-10-29T18:40:34;23.40;;;16.48;;
15814;SDS011;8008;50.024;8.172;2022-10-29T18:43:03;27.77;;;16.67;;
15814;SDS011;8008;50.024;8.172;2022-10-29T18:45:31;29.75;;;17.15;;
15814;SDS011;8008;50.024;8.172;2022-10-29T18:48:03;29.80;;;16.75;;
15814;SDS011;8008;50.024;8.172;2022-10-29T18:50:33;30.85;;;16.63;;